Time;durP1;ratioP1;P1;durP2;ratioP2;P2;SDS_P1;SDS_P2;PMS_P1;PMS_P2;Temp;Humidity;BMP_temperature;BMP_pressure;BME280_temperature;BME280_humidity;BME280_pressure;Samples;Min_cycle;Max_cycle;Signal;HPM_P1;HPM_P2
2022/01/28 00:02:36;;;;;;;0.10;0.10;;;5.70;99.90;;;;;;5097332;28;20094;-84
2022/01/28 00:04:58;;;;;;;0.10;0.10;;;4.70;99.90;;;;;;5113791;28;20440;-84
2022/01/28 00:07:25;;;;;;;0.10;0.10;;;4.30;99.90;;;;;;5093828;28;20043;-84
2022/01/28 00:09:51;;;;;;;0.10;0.10;;;4.60;99.90;;;;;;5094954;28;20047;-84
2022/01/28 00:12:18;;;;;;;0.10;0.10;;;4.50;99.90;;;;;;5127982;28;20507;-84
2022/01/28 00:38:50;;;;;;;0.10;0.10;;;4.60;99.90;;;;;;5113806;28;20040;-89
2022/01/28 00:41:17;;;;;;;0.10;0.10;;;4.50;99.90;;;;;;5094367;28;20127;-88
2022/01/28 00:43:43;;;;;;;0.10;0.10;;;4.60;99.90;;;;;;5093314;28;20113;-89
2022/01/28 00:46:11;;;;;;;0.10;0.10;;;4.90;99.90;;;;;;5077529;28;20056;-84
2022/01/28 00:48:39;;;;;;;0.10;0.10;;;4.60;99.90;;;;;;5094096;28;20467;-84
2022/01/28 00:51:06;;;;;;;0.00;0.00;;;4.50;99.90;;;;;;5110225;28;20061;-84
2022/01/28 00:53:33;;;;;;;0.00;0.00;;;4.20;99.90;;;;;;5110420;28;20080;-84
2022/01/28 00:56:00;;;;;;;0.10;0.10;;;4.50;99.90;;;;;;5111582;28;20515;-84
2022/01/28 00:58:26;;;;;;;0.10;0.10;;;5.10;99.90;;;;;;5128389;28;20078;-88
2022/01/28 01:00:53;;;;;;;0.10;0.10;;;4.90;99.90;;;;;;5111753;28;20043;-89
2022/01/28 01:03:20;;;;;;;0.10;0.10;;;4.40;99.90;;;;;;5094871;28;20035;-89
2022/01/28 01:05:47;;;;;;;0.10;0.10;;;4.40;99.90;;;;;;5093930;28;20546;-89
2022/01/28 01:08:14;;;;;;;0.10;0.10;;;5.00;99.90;;;;;;5094541;28;20079;-84
2022/01/28 01:10:41;;;;;;;0.10;0.10;;;4.90;99.90;;;;;;5094159;28;20397;-88
2022/01/28 01:13:08;;;;;;;0.10;0.10;;;4.40;99.90;;;;;;5094083;28;20401;-84
2022/01/28 01:15:40;;;;;;;0.10;0.10;;;4.40;99.90;;;;;;5110835;28;20078;-89
2022/01/28 01:18:20;;;;;;;0.10;0.10;;;4.50;99.90;;;;;;5110194;28;20480;-88
2022/01/28 01:23:24;;;;;;;0.10;0.10;;;4.50;99.90;;;;;;5110790;28;20051;-88
2022/01/28 01:25:57;;;;;;;0.10;0.10;;;4.50;99.90;;;;;;5127096;28;20044;-89
2022/01/28 01:28:30;;;;;;;0.10;0.10;;;4.50;99.90;;;;;;5115012;28;20040;-84
2022/01/28 01:30:59;;;;;;;0.10;0.10;;;4.90;99.90;;;;;;5097849;28;20040;-88
2022/01/28 01:33:27;;;;;;;0.10;0.10;;;4.90;99.90;;;;;;5115329;28;20040;-84
2022/01/28 01:35:54;;;;;;;0.10;0.10;;;4.70;99.90;;;;;;5097878;28;20075;-84
2022/01/28 01:38:26;;;;;;;0.10;0.10;;;4.20;99.90;;;;;;5098828;28;20096;-84
2022/01/28 01:40:59;;;;;;;0.10;0.10;;;4.20;99.90;;;;;;5098313;28;20046;-89
2022/01/28 01:53:52;;;;;;;0.10;0.10;;;4.00;99.90;;;;;;5130378;28;20412;-84
2022/01/28 01:56:20;;;;;;;0.10;0.10;;;4.00;99.90;;;;;;5098020;28;20032;-84
2022/01/28 01:58:47;;;;;;;0.10;0.10;;;4.40;99.90;;;;;;5096804;28;20059;-84
2022/01/28 02:01:14;;;;;;;0.10;0.10;;;4.10;99.90;;;;;;5096940;28;20385;-84
2022/01/28 02:03:41;;;;;;;0.10;0.10;;;4.10;99.90;;;;;;5097358;28;20131;-89
2022/01/28 02:06:08;;;;;;;0.10;0.10;;;4.50;99.90;;;;;;5114168;28;20412;-84
2022/01/28 02:08:35;;;;;;;0.10;0.10;;;4.20;99.90;;;;;;5096970;28;20046;-84
2022/01/28 02:11:02;;;;;;;0.10;0.10;;;4.20;99.90;;;;;;5113974;28;20512;-84
2022/01/28 02:13:34;;;;;;;0.10;0.10;;;4.80;99.90;;;;;;5096471;28;20040;-84
2022/01/28 02:16:01;;;;;;;0.10;0.10;;;4.50;99.90;;;;;;5131068;28;20044;-84
2022/01/28 02:18:28;;;;;;;0.10;0.10;;;4.30;99.90;;;;;;5114351;28;20051;-88
2022/01/28 02:21:02;;;;;;;0.10;0.10;;;4.30;99.90;;;;;;5114066;28;20040;-88
2022/01/28 02:23:29;;;;;;;0.10;0.10;;;4.40;99.90;;;;;;5097484;28;20044;-84
2022/01/28 02:25:58;;;;;;;0.10;0.10;;;4.40;99.90;;;;;;5097168;28;20046;-89
2022/01/28 02:28:26;;;;;;;0.10;0.10;;;4.70;99.90;;;;;;5130317;28;20178;-88
2022/01/28 02:30:53;;;;;;;0.10;0.10;;;4.50;99.90;;;;;;5097300;28;20062;-88
2022/01/28 02:33:23;;;;;;;0.10;0.10;;;4.50;99.90;;;;;;5096809;28;20113;-84
2022/01/28 02:35:51;;;;;;;0.10;0.10;;;4.60;99.90;;;;;;5112609;28;20101;-84
2022/01/28 02:38:21;;;;;;;0.10;0.10;;;4.50;99.90;;;;;;5111459;28;20042;-84
2022/01/28 02:40:59;;;;;;;0.10;0.10;;;4.40;99.90;;;;;;5129185;28;20489;-89
2022/01/28 02:46:04;;;;;;;0.10;0.10;;;4.50;99.90;;;;;;5114318;28;20075;-84
2022/01/28 02:48:33;;;;;;;0.10;0.10;;;4.40;99.90;;;;;;5112128;28;20044;-84
2022/01/28 02:51:17;;;;;;;0.10;0.10;;;4.50;99.90;;;;;;5113073;28;20102;-84
2022/01/28 02:53:49;;;;;;;0.10;0.10;;;4.50;99.90;;;;;;5098595;28;20555;-84
2022/01/28 02:56:32;;;;;;;0.10;0.10;;;4.60;99.90;;;;;;5130054;28;20048;-84
2022/01/28 02:58:58;;;;;;;0.10;0.10;;;4.70;99.90;;;;;;5099044;28;20043;-89
2022/01/28 03:01:26;;;;;;;0.10;0.10;;;4.70;99.90;;;;;;5096591;28;20096;-85
2022/01/28 03:03:57;;;;;;;0.10;0.10;;;4.70;99.90;;;;;;5112494;28;20131;-89
2022/01/28 03:06:23;;;;;;;0.10;0.10;;;4.70;99.90;;;;;;5096740;28;20083;-83
2022/01/28 03:09:00;;;;;;;0.10;0.10;;;4.80;99.90;;;;;;5095713;28;20082;-83
2022/01/28 03:11:42;;;;;;;0.10;0.10;;;4.80;99.90;;;;;;5129405;28;20083;-84
2022/01/28 03:17:09;;;;;;;0.10;0.10;;;4.80;99.90;;;;;;5129597;28;20040;-84
2022/01/28 03:19:50;;;;;;;0.10;0.10;;;4.80;99.90;;;;;;5129231;28;20036;-88
2022/01/28 03:22:16;;;;;;;0.10;0.10;;;4.90;99.90;;;;;;5112670;28;20094;-84
2022/01/28 03:24:47;;;;;;;0.10;0.10;;;4.90;99.90;;;;;;5128704;28;20083;-84
2022/01/28 03:27:22;;;;;;;0.10;0.10;;;4.90;99.90;;;;;;5096611;28;20142;-84
2022/01/28 03:29:49;;;;;;;0.10;0.10;;;4.90;99.90;;;;;;5096905;28;20032;-84
2022/01/28 03:32:16;;;;;;;0.10;0.10;;;5.00;99.90;;;;;;5095388;28;20032;-84
2022/01/28 03:34:42;;;;;;;0.10;0.10;;;5.00;99.90;;;;;;5095272;28;20481;-83
2022/01/28 03:37:11;;;;;;;0.10;0.10;;;5.10;99.90;;;;;;5094540;28;20827;-84
2022/01/28 03:39:38;;;;;;;0.10;0.10;;;5.00;99.90;;;;;;5095187;28;20074;-84
2022/01/28 03:42:05;;;;;;;0.10;0.10;;;5.10;99.90;;;;;;5095168;28;20067;-89
2022/01/28 03:44:32;;;;;;;0.10;0.10;;;5.00;99.90;;;;;;5095530;28;20047;-88
2022/01/28 03:46:59;;;;;;;0.10;0.10;;;5.00;99.90;;;;;;5094969;28;20036;-88
2022/01/28 03:49:25;;;;;;;0.10;0.10;;;5.00;99.90;;;;;;5094136;28;20127;-84
2022/01/28 03:51:52;;;;;;;0.10;0.10;;;5.10;99.90;;;;;;5094736;28;20036;-84
2022/01/28 03:54:19;;;;;;;0.10;0.10;;;5.10;99.90;;;;;;5094779;28;20036;-89
2022/01/28 03:56:45;;;;;;;0.10;0.10;;;5.40;99.90;;;;;;5095325;28;20122;-83
2022/01/28 03:59:12;;;;;;;0.10;0.10;;;5.00;99.90;;;;;;5094143;28;20040;-84
2022/01/28 04:01:40;;;;;;;0.10;0.10;;;5.40;99.90;;;;;;5094809;28;20043;-88
2022/01/28 04:12:18;;;;;;;0.10;0.10;;;5.10;99.90;;;;;;5133234;28;20568;-84
2022/01/28 04:15:00;;;;;;;0.10;0.10;;;5.10;99.90;;;;;;5111425;28;20044;-83
2022/01/28 04:17:27;;;;;;;0.10;0.10;;;5.10;99.90;;;;;;5082534;28;20044;-84
2022/01/28 04:19:54;;;;;;;0.10;0.10;;;5.10;99.90;;;;;;5094127;28;20504;-84
2022/01/28 04:22:21;;;;;;;0.10;0.10;;;5.10;99.90;;;;;;5078011;28;20051;-84
2022/01/28 04:24:48;;;;;;;0.10;0.10;;;5.00;99.90;;;;;;5110754;28;20075;-84
2022/01/28 04:27:15;;;;;;;0.10;0.10;;;5.00;99.90;;;;;;5093320;28;20051;-84
2022/01/28 04:29:42;;;;;;;0.10;0.10;;;4.90;99.90;;;;;;5110979;28;20086;-84
2022/01/28 04:32:09;;;;;;;0.10;0.10;;;4.90;99.90;;;;;;5109835;28;20839;-88
2022/01/28 04:34:36;;;;;;;0.10;0.10;;;5.00;99.90;;;;;;5093886;28;20075;-84
2022/01/28 05:09:29;;;;;;;0.10;0.10;;;5.00;99.90;;;;;;5111180;28;20141;-84
2022/01/28 05:25:19;;;;;;;0.08;0.08;;;4.90;99.90;;;;;;5093451;28;20184;-84
2022/01/28 05:27:43;;;;;;;0.10;0.10;;;4.90;99.90;;;;;;5099568;28;20164;-89
2022/01/28 05:30:10;;;;;;;0.10;0.10;;;5.20;99.90;;;;;;5094273;28;20127;-89
2022/01/28 05:32:37;;;;;;;0.10;0.10;;;4.90;99.90;;;;;;5094309;28;20083;-89
2022/01/28 05:35:04;;;;;;;0.10;0.10;;;5.20;99.90;;;;;;5076022;28;20072;-85
2022/01/28 05:37:31;;;;;;;0.10;0.10;;;4.90;99.90;;;;;;5092987;28;20040;-89
2022/01/28 05:39:58;;;;;;;0.13;0.13;;;5.00;99.90;;;;;;5093570;28;20047;-88
2022/01/28 05:42:24;;;;;;;0.10;0.10;;;5.00;99.90;;;;;;5109551;28;20124;-88
2022/01/28 05:44:51;;;;;;;0.10;0.10;;;5.00;99.90;;;;;;5077822;28;20044;-89
2022/01/28 05:47:18;;;;;;;0.10;0.10;;;5.00;99.90;;;;;;5093239;28;20036;-84
2022/01/28 05:49:45;;;;;;;0.10;0.10;;;5.00;99.90;;;;;;5093471;28;20051;-83
2022/01/28 05:52:12;;;;;;;0.10;0.10;;;4.90;99.90;;;;;;5076535;28;20036;-88
2022/01/28 05:54:38;;;;;;;0.10;0.10;;;5.00;99.90;;;;;;5093960;28;20043;-83
2022/01/28 05:57:05;;;;;;;0.10;0.10;;;5.20;99.90;;;;;;5076509;28;20036;-88
2022/01/28 05:59:32;;;;;;;0.10;0.10;;;5.00;99.90;;;;;;5076628;28;20036;-84
2022/01/28 06:01:59;;;;;;;0.10;0.10;;;5.00;99.90;;;;;;5076545;28;20032;-88
2022/01/28 06:04:25;;;;;;;0.10;0.10;;;5.10;99.90;;;;;;5092782;28;20040;-88
2022/01/28 06:06:52;;;;;;;0.10;0.10;;;5.30;99.90;;;;;;5076934;28;20040;-88
2022/01/28 06:09:19;;;;;;;0.10;0.10;;;5.10;99.90;;;;;;5076273;28;20129;-84
2022/01/28 06:11:46;;;;;;;0.10;0.10;;;5.30;99.90;;;;;;5092758;28;20036;-84
2022/01/28 06:14:13;;;;;;;0.10;0.10;;;5.20;99.90;;;;;;5081774;28;20040;-87
2022/01/28 06:16:40;;;;;;;0.10;0.10;;;5.00;99.90;;;;;;5098185;28;20127;-88
2022/01/28 06:19:07;;;;;;;0.10;0.10;;;5.30;99.90;;;;;;5080403;28;20036;-84
2022/01/28 06:21:33;;;;;;;0.10;0.10;;;5.00;99.90;;;;;;5079784;28;20443;-84
2022/01/28 06:24:00;;;;;;;0.90;0.90;;;5.00;99.90;;;;;;5079607;28;20051;-84
2022/01/28 06:26:27;;;;;;;0.10;0.10;;;5.00;99.90;;;;;;5078865;28;20076;-88
2022/01/28 06:28:54;;;;;;;0.10;0.10;;;5.00;99.90;;;;;;5112732;28;20086;-84
2022/01/28 06:31:20;;;;;;;0.10;0.10;;;5.00;99.90;;;;;;5079720;28;20040;-88
2022/01/28 06:33:47;;;;;;;0.10;0.10;;;5.40;99.90;;;;;;5079447;28;20040;-84
2022/01/28 06:36:15;;;;;;;0.10;0.10;;;5.00;99.90;;;;;;5095789;28;20036;-84
2022/01/28 06:38:41;;;;;;;0.10;0.10;;;5.00;99.90;;;;;;5096184;28;20507;-88
2022/01/28 06:41:08;;;;;;;0.10;0.10;;;5.10;99.90;;;;;;5102718;28;20118;-89
2022/01/28 06:43:35;;;;;;;0.10;0.10;;;5.00;99.90;;;;;;5116396;28;20066;-84
2022/01/28 06:46:02;;;;;;;0.10;0.10;;;5.00;99.90;;;;;;5099899;28;20046;-88
2022/01/28 06:48:29;;;;;;;0.10;0.10;;;5.10;99.90;;;;;;5115177;28;20523;-84
2022/01/28 06:50:56;;;;;;;0.10;0.10;;;5.10;99.90;;;;;;5091135;28;20036;-87
2022/01/28 06:53:22;;;;;;;0.10;0.10;;;5.10;99.90;;;;;;5116418;28;20586;-88
2022/01/28 06:55:49;;;;;;;0.10;0.10;;;5.10;99.90;;;;;;5134107;28;20050;-89
2022/01/28 06:58:16;;;;;;;0.10;0.10;;;5.00;99.90;;;;;;5132851;28;20051;-87
2022/01/28 07:00:42;;;;;;;0.10;0.10;;;5.10;99.90;;;;;;5099643;28;20399;-88
2022/01/28 07:03:11;;;;;;;0.10;0.10;;;5.00;99.90;;;;;;5115539;28;20044;-88
2022/01/28 07:05:38;;;;;;;0.10;0.10;;;5.30;99.90;;;;;;5100029;28;20046;-84
2022/01/28 07:08:06;;;;;;;0.10;0.10;;;5.00;99.90;;;;;;5115165;28;20039;-88
2022/01/28 07:10:33;;;;;;;0.10;0.10;;;5.00;99.90;;;;;;5132634;28;20031;-88
2022/01/28 07:13:03;;;;;;;0.10;0.10;;;4.90;99.90;;;;;;5116937;28;20054;-88
2022/01/28 07:15:30;;;;;;;0.10;0.10;;;5.20;99.90;;;;;;5131675;28;20031;-88
2022/01/28 07:18:01;;;;;;;0.10;0.10;;;4.80;99.90;;;;;;5098816;28;20040;-84
2022/01/28 07:20:33;;;;;;;0.10;0.10;;;4.90;99.90;;;;;;5143769;28;20171;-84
2022/01/28 07:23:01;;;;;;;0.10;0.10;;;4.90;99.90;;;;;;5111245;28;20059;-83
2022/01/28 07:25:28;;;;;;;0.10;0.10;;;4.80;99.90;;;;;;5111224;28;20519;-83
2022/01/28 07:27:55;;;;;;;0.10;0.10;;;4.80;99.90;;;;;;5096003;28;20039;-88
2022/01/28 07:30:22;;;;;;;0.10;0.10;;;4.80;99.90;;;;;;5128505;28;20039;-83
2022/01/28 07:32:51;;;;;;;0.10;0.10;;;4.70;99.90;;;;;;5098031;28;20044;-83
2022/01/28 07:35:18;;;;;;;0.10;0.10;;;4.70;99.90;;;;;;5099646;28;20036;-83
2022/01/28 07:37:44;;;;;;;0.10;0.10;;;4.70;99.90;;;;;;5112705;28;20050;-87
2022/01/28 07:40:12;;;;;;;0.10;0.10;;;4.60;99.90;;;;;;5095189;28;20137;-83
2022/01/28 07:42:40;;;;;;;0.10;0.10;;;4.60;99.90;;;;;;5110591;28;20063;-88
2022/01/28 07:45:09;;;;;;;0.10;0.10;;;4.60;99.90;;;;;;5107521;28;20040;-83
2022/01/28 07:47:36;;;;;;;0.10;0.10;;;4.60;99.90;;;;;;5110911;28;20040;-83
2022/01/28 07:50:07;;;;;;;0.10;0.10;;;4.60;99.90;;;;;;5112767;28;20051;-83
2022/01/28 07:52:36;;;;;;;0.10;0.10;;;4.50;99.90;;;;;;5111347;28;20067;-83
2022/01/28 07:55:04;;;;;;;0.10;0.10;;;4.60;99.90;;;;;;5094980;28;20085;-88
2022/01/28 07:57:31;;;;;;;0.10;0.10;;;4.60;99.90;;;;;;5088551;28;20040;-88
2022/01/28 07:59:58;;;;;;;0.10;0.10;;;4.60;99.90;;;;;;5111422;28;20071;-88
2022/01/28 08:02:27;;;;;;;0.10;0.10;;;4.50;99.90;;;;;;5111256;28;20040;-87
2022/01/28 08:04:54;;;;;;;0.10;0.10;;;4.50;99.90;;;;;;5114991;28;20044;-83
2022/01/28 08:07:22;;;;;;;0.10;0.10;;;4.40;99.90;;;;;;5144927;28;20496;-88
2022/01/28 08:09:49;;;;;;;0.10;0.10;;;4.60;99.90;;;;;;5112271;28;20180;-83
2022/01/28 08:12:15;;;;;;;0.10;0.10;;;4.30;99.90;;;;;;5099696;28;20118;-82
2022/01/28 08:14:42;;;;;;;0.10;0.10;;;4.40;99.90;;;;;;5114485;28;20492;-83
2022/01/28 08:17:11;;;;;;;0.10;0.10;;;4.30;99.90;;;;;;5114695;28;20062;-87
2022/01/28 08:19:38;;;;;;;0.10;0.10;;;4.20;99.90;;;;;;5098161;28;20184;-83
2022/01/28 08:22:05;;;;;;;0.10;0.10;;;4.30;99.90;;;;;;5113565;28;20039;-87
2022/01/28 08:24:32;;;;;;;0.10;0.10;;;4.60;99.90;;;;;;5087043;28;20035;-87
2022/01/28 08:26:58;;;;;;;0.10;0.10;;;4.30;99.90;;;;;;5131356;28;20122;-87
2022/01/28 08:29:25;;;;;;;0.10;0.10;;;4.30;99.90;;;;;;5114477;28;20074;-84
2022/01/28 08:31:52;;;;;;;0.00;0.00;;;4.40;99.90;;;;;;5097775;28;20118;-84
2022/01/28 08:34:18;;;;;;;0.10;0.10;;;4.40;99.90;;;;;;5114217;28;20050;-84
2022/01/28 08:36:45;;;;;;;0.10;0.10;;;4.30;99.90;;;;;;5092982;28;20078;-88
2022/01/28 08:39:14;;;;;;;0.10;0.10;;;4.60;99.90;;;;;;5093924;28;20042;-84
2022/01/28 08:41:42;;;;;;;0.10;0.10;;;4.40;99.90;;;;;;5120818;28;20040;-88
2022/01/28 08:44:09;;;;;;;0.10;0.10;;;4.90;99.90;;;;;;5129544;28;20050;-84
2022/01/28 08:46:36;;;;;;;0.10;0.10;;;4.60;99.90;;;;;;5108748;28;20040;-84
2022/01/28 08:49:03;;;;;;;0.10;0.10;;;5.20;99.90;;;;;;5096554;28;20557;-84
2022/01/28 08:51:30;;;;;;;0.10;0.10;;;4.70;99.90;;;;;;5108837;28;20047;-89
2022/01/28 08:53:57;;;;;;;0.10;0.10;;;4.80;99.90;;;;;;5111912;28;20047;-84
2022/01/28 08:56:23;;;;;;;0.10;0.10;;;4.90;99.90;;;;;;5089982;28;20042;-89
2022/01/28 08:58:50;;;;;;;0.10;0.10;;;4.90;99.90;;;;;;5097199;28;20079;-89
2022/01/28 09:01:17;;;;;;;0.08;0.08;;;5.00;99.90;;;;;;5097905;28;20067;-88
2022/01/28 09:03:44;;;;;;;0.10;0.10;;;5.90;99.90;;;;;;5130813;28;20423;-85
2022/01/28 09:06:11;;;;;;;0.10;0.10;;;5.10;99.90;;;;;;5113919;28;20050;-84
2022/01/28 09:08:39;;;;;;;0.10;0.10;;;5.10;99.90;;;;;;5097483;28;20035;-89
2022/01/28 09:11:54;;;;;;;0.10;0.10;;;5.20;99.90;;;;;;5113908;28;20407;-84
2022/01/28 09:13:56;;;;;;;0.10;0.10;;;5.20;99.90;;;;;;5127532;28;20128;-88
2022/01/28 09:16:23;;;;;;;0.10;0.10;;;5.20;99.90;;;;;;5096825;28;20385;-84
2022/01/28 09:18:50;;;;;;;0.20;0.20;;;5.20;99.90;;;;;;5130219;28;20047;-89
2022/01/28 09:21:19;;;;;;;0.10;0.10;;;5.10;99.90;;;;;;5131311;28;20039;-88
2022/01/28 09:23:49;;;;;;;0.10;0.10;;;5.10;99.90;;;;;;5113306;28;20492;-84
2022/01/28 09:26:15;;;;;;;0.10;0.10;;;5.60;99.90;;;;;;5130847;28;20042;-89
2022/01/28 09:28:42;;;;;;;0.10;0.10;;;5.30;99.90;;;;;;5147483;28;20118;-89
2022/01/28 09:31:09;;;;;;;0.10;0.10;;;5.40;99.90;;;;;;5113527;28;20385;-84
2022/01/28 09:33:37;;;;;;;0.10;0.10;;;5.50;99.90;;;;;;5130440;28;20055;-89
2022/01/28 09:36:06;;;;;;;0.10;0.10;;;5.60;99.90;;;;;;5113366;28;20028;-84
2022/01/28 09:38:34;;;;;;;0.10;0.10;;;5.60;99.90;;;;;;5130656;28;20456;-89
2022/01/28 09:41:04;;;;;;;0.10;0.10;;;5.70;99.90;;;;;;5113522;28;20078;-91
2022/01/28 09:43:31;;;;;;;0.10;0.10;;;6.00;99.90;;;;;;5130032;28;20055;-85
2022/01/28 09:46:00;;;;;;;0.10;0.10;;;5.70;99.90;;;;;;5129468;28;20055;-85
2022/01/28 09:48:27;;;;;;;0.10;0.10;;;5.80;99.90;;;;;;5132154;28;20506;-85
2022/01/28 09:51:00;;;;;;;0.10;0.10;;;5.70;99.90;;;;;;5117571;28;20106;-89
2022/01/28 09:53:27;;;;;;;0.10;0.10;;;5.70;99.90;;;;;;5133997;28;20047;-85
2022/01/28 09:55:54;;;;;;;0.10;0.10;;;5.70;99.90;;;;;;5116876;28;20043;-84
2022/01/28 09:58:21;;;;;;;0.10;0.10;;;5.70;99.90;;;;;;5100083;28;20089;-85
2022/01/28 10:00:48;;;;;;;0.10;0.10;;;5.80;99.90;;;;;;5117099;28;20036;-89
2022/01/28 10:03:16;;;;;;;0.08;0.08;;;5.80;99.90;;;;;;5133505;28;20039;-88
2022/01/28 10:05:50;;;;;;;0.10;0.10;;;5.80;99.90;;;;;;5117221;28;20066;-89
2022/01/28 10:08:20;;;;;;;0.10;0.10;;;5.80;99.90;;;;;;5133741;28;20046;-89
2022/01/28 10:11:14;;;;;;;0.10;0.10;;;5.80;99.90;;;;;;5133182;28;20518;-84
2022/01/28 10:13:49;;;;;;;0.10;0.10;;;5.90;99.90;;;;;;5133850;28;20043;-88
2022/01/28 10:16:16;;;;;;;0.10;0.10;;;6.00;99.90;;;;;;5133826;28;20062;-84
2022/01/28 10:18:52;;;;;;;0.10;0.10;;;6.10;99.90;;;;;;5150448;28;20047;-84
2022/01/28 10:21:26;;;;;;;0.10;0.10;;;6.20;99.90;;;;;;5150162;28;20526;-84
2022/01/28 10:23:56;;;;;;;0.10;0.10;;;6.20;99.90;;;;;;5150656;28;20093;-85
2022/01/28 10:26:37;;;;;;;0.10;0.10;;;6.30;99.90;;;;;;5133728;28;20482;-89
2022/01/28 10:29:23;;;;;;;0.10;0.10;;;6.30;99.90;;;;;;5133409;28;20079;-89
2022/01/28 10:31:56;;;;;;;0.10;0.10;;;6.30;99.90;;;;;;5133587;28;20048;-84
2022/01/28 10:34:35;;;;;;;0.10;0.10;;;6.20;99.90;;;;;;5133317;28;20126;-84
2022/01/28 10:37:23;;;;;;;0.10;0.10;;;6.20;99.90;;;;;;5133562;28;20032;-89
2022/01/28 10:40:11;;;;;;;0.10;0.10;;;6.10;99.90;;;;;;5133138;28;20118;-85
2022/01/28 10:42:50;;;;;;;0.10;0.10;;;6.10;99.90;;;;;;5133312;28;20130;-84
2022/01/28 10:45:22;;;;;;;0.10;0.10;;;6.00;99.90;;;;;;5133285;28;20056;-89
2022/01/28 10:47:50;;;;;;;0.10;0.10;;;6.00;99.90;;;;;;5133172;28;20075;-85
2022/01/28 10:50:33;;;;;;;0.03;0.03;;;6.10;99.90;;;;;;5132856;28;20043;-84
2022/01/28 10:53:03;;;;;;;0.10;0.10;;;6.20;99.90;;;;;;5133825;28;20555;-89
2022/01/28 10:55:31;;;;;;;0.10;0.10;;;6.30;99.90;;;;;;5133260;28;20044;-89
2022/01/28 10:58:04;;;;;;;0.08;0.08;;;6.40;99.90;;;;;;5132911;28;20040;-89
2022/01/28 11:00:40;;;;;;;0.10;0.10;;;6.60;99.90;;;;;;5131784;28;20040;-89
2022/01/28 11:03:10;;;;;;;0.10;0.10;;;6.60;99.90;;;;;;5131996;28;20047;-84
2022/01/28 11:05:38;;;;;;;0.10;0.10;;;6.60;99.90;;;;;;5132565;28;20035;-88
2022/01/28 11:08:11;;;;;;;0.10;0.10;;;6.60;99.90;;;;;;5116174;28;20515;-85
2022/01/28 11:10:40;;;;;;;0.10;0.10;;;6.60;99.90;;;;;;5133756;28;20046;-90
2022/01/28 11:13:07;;;;;;;0.10;0.10;;;6.70;99.90;;;;;;5115841;28;20099;-89
2022/01/28 11:15:35;;;;;;;0.10;0.10;;;6.80;99.90;;;;;;5129231;28;20035;-89
2022/01/28 11:18:04;;;;;;;0.10;0.10;;;6.80;99.90;;;;;;5092981;28;20460;-85
2022/01/28 11:20:38;;;;;;;0.05;0.05;;;6.80;99.90;;;;;;5146506;28;20036;-84
2022/01/28 11:23:20;;;;;;;0.10;0.10;;;6.90;99.90;;;;;;5121136;28;20043;-84
2022/01/28 11:25:56;;;;;;;0.10;0.10;;;6.90;99.90;;;;;;5112677;28;20185;-89
2022/01/28 11:28:47;;;;;;;0.10;0.10;;;7.00;99.90;;;;;;5112678;28;20051;-85
2022/01/28 11:31:15;;;;;;;0.00;0.00;;;6.90;99.90;;;;;;5112420;28;20062;-89
2022/01/28 11:33:47;;;;;;;0.10;0.10;;;6.90;99.90;;;;;;5079071;28;20036;-89
2022/01/28 11:36:34;;;;;;;0.05;0.05;;;6.90;99.90;;;;;;5112430;28;20048;-85
2022/01/28 11:39:09;;;;;;;0.00;0.00;;;6.80;99.90;;;;;;5094439;28;20036;-89
2022/01/28 11:41:36;;;;;;;0.10;0.10;;;6.80;99.90;;;;;;5112399;28;20032;-89
2022/01/28 11:44:03;;;;;;;0.10;0.10;;;6.70;99.90;;;;;;5093951;28;20063;-85
2022/01/28 11:46:37;;;;;;;0.10;0.10;;;6.60;99.90;;;;;;5078403;28;20145;-85
2022/01/28 11:49:07;;;;;;;0.10;0.10;;;6.60;99.90;;;;;;5111299;28;20036;-85
2022/01/28 11:51:37;;;;;;;0.00;0.00;;;6.60;99.90;;;;;;5111472;28;20424;-85
2022/01/28 11:54:06;;;;;;;0.10;0.10;;;6.10;99.90;;;;;;5111105;28;20032;-84
2022/01/28 11:56:36;;;;;;;0.00;0.00;;;6.60;99.90;;;;;;5112682;28;20491;-89
2022/01/28 11:59:08;;;;;;;0.00;0.00;;;6.50;99.90;;;;;;5110459;28;20039;-89
2022/01/28 12:01:40;;;;;;;0.10;0.10;;;6.60;99.90;;;;;;5111015;28;20047;-84
2022/01/28 12:04:32;;;;;;;0.08;0.08;;;6.60;99.90;;;;;;5111037;28;20051;-89
2022/01/28 12:07:03;;;;;;;0.10;0.10;;;6.60;99.90;;;;;;5105363;28;20059;-87
2022/01/28 12:09:31;;;;;;;0.10;0.10;;;6.70;99.90;;;;;;5111929;28;20102;-84
2022/01/28 12:11:59;;;;;;;0.47;0.20;;;6.70;99.90;;;;;;5094799;28;20400;-89
2022/01/28 12:15:03;;;;;;;0.10;0.10;;;6.70;99.90;;;;;;5110937;28;20040;-84
2022/01/28 12:17:30;;;;;;;0.10;0.10;;;6.70;99.90;;;;;;5110641;28;20511;-89
2022/01/28 12:20:10;;;;;;;0.10;0.10;;;6.80;99.90;;;;;;5110312;28;20039;-84
2022/01/28 12:23:11;;;;;;;0.10;0.10;;;6.80;99.90;;;;;;5095148;28;20040;-84
2022/01/28 12:25:40;;;;;;;0.05;0.05;;;6.90;99.90;;;;;;5110866;28;20044;-84
2022/01/28 12:28:16;;;;;;;0.00;0.00;;;7.10;99.90;;;;;;5111014;28;20047;-88
2022/01/28 12:31:09;;;;;;;0.10;0.10;;;6.80;99.90;;;;;;5127694;28;20501;-84
2022/01/28 12:33:40;;;;;;;0.00;0.00;;;6.80;99.90;;;;;;5094247;28;20502;-88
2022/01/28 12:36:22;;;;;;;0.03;0.03;;;6.70;99.90;;;;;;5118003;28;20110;-84
2022/01/28 12:39:06;;;;;;;0.10;0.10;;;6.70;99.90;;;;;;5123966;28;20108;-88
2022/01/28 12:41:42;;;;;;;0.10;0.10;;;6.70;99.90;;;;;;5110332;28;20055;-84
2022/01/28 12:44:10;;;;;;;0.40;0.40;;;6.70;99.90;;;;;;5095277;28;20087;-84
2022/01/28 12:46:44;;;;;;;0.10;0.10;;;6.70;99.90;;;;;;5114108;28;20117;-84
2022/01/28 12:49:11;;;;;;;0.10;0.10;;;6.70;99.90;;;;;;5109827;28;20047;-88
2022/01/28 12:51:39;;;;;;;0.10;0.10;;;6.60;99.90;;;;;;5096675;28;20036;-84
2022/01/28 12:54:06;;;;;;;0.10;0.10;;;6.70;99.90;;;;;;5113740;28;20136;-88
2022/01/28 12:56:38;;;;;;;0.10;0.10;;;6.70;99.90;;;;;;5128918;28;20507;-85
2022/01/28 12:59:06;;;;;;;0.00;0.00;;;6.70;99.90;;;;;;5113329;28;20035;-88
2022/01/28 13:01:33;;;;;;;0.10;0.10;;;6.70;99.90;;;;;;5092116;28;20036;-88
2022/01/28 13:04:14;;;;;;;0.00;0.00;;;6.70;99.90;;;;;;5109423;28;20052;-86
2022/01/28 13:09:15;;;;;;;0.10;0.10;;;6.60;99.90;;;;;;5110613;28;20044;-85
2022/01/28 13:11:49;;;;;;;0.10;0.10;;;6.70;99.90;;;;;;5110138;28;20071;-89
2022/01/28 13:14:20;;;;;;;0.10;0.10;;;6.70;99.90;;;;;;5117205;28;20046;-89
2022/01/28 13:16:49;;;;;;;0.10;0.10;;;6.70;99.90;;;;;;5126361;28;20447;-84
2022/01/28 13:19:19;;;;;;;0.08;0.08;;;6.70;99.90;;;;;;5115029;28;20069;-88
2022/01/28 13:21:48;;;;;;;0.10;0.10;;;6.70;99.90;;;;;;5110155;28;20044;-85
2022/01/28 13:24:20;;;;;;;0.00;0.00;;;6.60;99.90;;;;;;5096701;28;20074;-89
2022/01/28 13:27:06;;;;;;;0.10;0.10;;;6.50;99.90;;;;;;5120178;28;20122;-87
2022/01/28 13:29:45;;;;;;;0.10;0.10;;;6.50;99.90;;;;;;5123991;28;20035;-88
2022/01/28 13:32:14;;;;;;;0.10;0.10;;;6.50;99.90;;;;;;5121200;28;20285;-88
2022/01/28 13:35:01;;;;;;;0.10;0.10;;;6.50;99.90;;;;;;5122289;28;20036;-88
2022/01/28 13:37:55;;;;;;;0.10;0.10;;;6.60;99.90;;;;;;5111596;28;20043;-84
2022/01/28 13:40:26;;;;;;;0.10;0.10;;;6.70;99.90;;;;;;5131225;28;20035;-88
2022/01/28 13:43:06;;;;;;;0.05;0.05;;;6.60;99.90;;;;;;5128117;28;20047;-88
2022/01/28 13:45:43;;;;;;;0.10;0.10;;;6.60;99.90;;;;;;5113733;28;20051;-88
2022/01/28 13:48:19;;;;;;;0.10;0.10;;;6.40;99.90;;;;;;5116803;28;20090;-89
2022/01/28 13:50:51;;;;;;;0.10;0.10;;;6.40;99.90;;;;;;5114829;28;20047;-89
2022/01/28 13:56:04;;;;;;;0.10;0.10;;;6.30;99.90;;;;;;5131329;28;20051;-84
2022/01/28 13:58:46;;;;;;;0.00;0.00;;;6.30;99.90;;;;;;5113028;28;20032;-89
2022/01/28 14:01:15;;;;;;;0.10;0.10;;;6.30;99.90;;;;;;5114545;28;20040;-85
2022/01/28 14:03:54;;;;;;;0.10;0.10;;;6.20;99.90;;;;;;5130655;28;20699;-85
2022/01/28 14:06:32;;;;;;;0.10;0.10;;;6.20;99.90;;;;;;5114789;28;20134;-88
2022/01/28 14:09:11;;;;;;;0.10;0.10;;;6.20;99.90;;;;;;5113366;28;20036;-86
2022/01/28 14:11:43;;;;;;;0.10;0.10;;;6.20;99.90;;;;;;5133417;28;20039;-87
2022/01/28 14:14:43;;;;;;;0.10;0.10;;;6.20;99.90;;;;;;5133002;28;20467;-85
2022/01/28 14:17:11;;;;;;;0.00;0.00;;;6.20;99.90;;;;;;5132624;28;20465;-86
2022/01/28 14:19:39;;;;;;;0.00;0.00;;;6.20;99.90;;;;;;5132205;28;20065;-86
2022/01/28 14:22:08;;;;;;;0.10;0.10;;;6.60;99.90;;;;;;5133212;28;20505;-87
2022/01/28 14:24:36;;;;;;;0.10;0.10;;;6.20;99.90;;;;;;5133286;28;20047;-86
2022/01/28 14:32:09;;;;;;;0.08;0.08;;;6.20;99.90;;;;;;5149448;28;20121;-86
2022/01/28 14:34:38;;;;;;;0.00;0.00;;;6.30;99.90;;;;;;5132216;28;20040;-88
2022/01/28 14:37:06;;;;;;;0.10;0.10;;;6.30;99.90;;;;;;5116366;28;20654;-87
2022/01/28 14:39:35;;;;;;;0.10;0.10;;;6.20;99.90;;;;;;5132539;28;20040;-88
2022/01/28 14:42:06;;;;;;;0.10;0.10;;;6.20;99.90;;;;;;5116528;28;20112;-86
2022/01/28 14:44:44;;;;;;;0.10;0.10;;;6.20;99.90;;;;;;5115502;28;20063;-86
2022/01/28 14:47:12;;;;;;;0.10;0.10;;;6.30;99.90;;;;;;5132630;28;20079;-88
2022/01/28 14:49:38;;;;;;;0.10;0.10;;;6.30;99.90;;;;;;5115605;28;20047;-87
2022/01/28 14:52:14;;;;;;;0.00;0.00;;;6.20;99.90;;;;;;5132994;28;20039;-85
2022/01/28 14:54:40;;;;;;;0.10;0.10;;;6.20;99.90;;;;;;5132416;28;20036;-87
2022/01/28 14:57:10;;;;;;;0.10;0.10;;;6.20;99.90;;;;;;5099185;28;20112;-86
2022/01/28 14:59:39;;;;;;;0.10;0.10;;;7.00;99.90;;;;;;5115946;28;20062;-87
2022/01/28 15:02:07;;;;;;;0.08;0.08;;;6.10;99.90;;;;;;5132645;28;20039;-86